createdAt,value
2023-04-25T00:00:05.536Z,31.50
2023-04-25T00:01:05.512Z,31.51
2023-04-25T00:02:05.591Z,31.53
2023-04-25T00:03:05.638Z,31.51
2023-04-25T00:04:05.612Z,31.54
2023-04-25T00:05:05.658Z,31.49
2023-04-25T00:06:05.500Z,31.53
2023-04-25T00:07:05.473Z,31.54
2023-04-25T00:08:05.497Z,31.55
2023-04-25T00:09:05.478Z,31.56
2023-04-25T00:10:05.490Z,31.56
2023-04-25T00:11:05.474Z,31.54
2023-04-25T00:12:05.440Z,31.56
2023-04-25T00:13:05.511Z,31.57
2023-04-25T00:14:05.427Z,31.59
2023-04-25T00:15:05.477Z,31.58
2023-04-25T00:16:05.482Z,31.56
2023-04-25T00:17:05.449Z,31.60
2023-04-25T00:18:05.416Z,31.58
2023-04-25T00:19:05.400Z,31.56
2023-04-25T00:20:05.387Z,31.58
2023-04-25T00:21:05.401Z,31.57
2023-04-25T00:22:05.404Z,31.57
2023-04-25T00:23:05.403Z,31.57
2023-04-25T00:24:05.364Z,31.59
2023-04-25T00:25:05.341Z,31.60
2023-04-25T00:26:05.387Z,31.59
2023-04-25T00:27:05.363Z,31.60
2023-04-25T00:28:05.341Z,31.61
2023-04-25T00:29:05.338Z,31.61
2023-04-25T00:30:05.332Z,31.62
2023-04-25T00:31:05.328Z,31.60
2023-04-25T00:32:05.375Z,31.62
2023-04-25T00:33:05.372Z,31.63
2023-04-25T00:34:05.293Z,31.60
2023-04-25T00:35:05.302Z,31.63
2023-04-25T00:36:05.267Z,31.64
2023-04-25T00:37:05.265Z,31.63
2023-04-25T00:38:05.302Z,31.67
2023-04-25T00:39:05.261Z,31.66
2023-04-25T00:40:05.281Z,31.66
2023-04-25T00:41:05.253Z,31.66
2023-04-25T00:42:05.258Z,31.66
2023-04-25T00:43:05.249Z,31.66
2023-04-25T00:44:05.217Z,31.64
2023-04-25T00:45:05.220Z,31.68
2023-04-25T00:46:05.212Z,31.65
2023-04-25T00:47:05.248Z,31.66
2023-04-25T00:48:05.250Z,31.69
2023-04-25T00:49:05.180Z,31.68
2023-04-25T00:50:05.182Z,31.71
2023-04-25T00:51:05.191Z,31.72
2023-04-25T00:52:05.169Z,31.75
2023-04-25T00:53:05.142Z,31.74
2023-04-25T00:54:05.179Z,31.77
2023-04-25T00:55:05.161Z,31.74
2023-04-25T00:56:05.131Z,31.72
2023-04-25T00:57:05.150Z,31.75
2023-04-25T00:58:05.139Z,31.72
2023-04-25T00:59:05.115Z,31.72
2023-04-25T01:00:05.127Z,31.76
2023-04-25T01:01:05.141Z,31.73
2023-04-25T01:02:05.109Z,31.76
2023-04-25T01:03:05.201Z,31.75
2023-04-25T01:04:05.278Z,31.74
2023-04-25T01:05:05.101Z,31.73
2023-04-25T01:06:05.073Z,31.72
2023-04-25T01:07:05.059Z,31.73
2023-04-25T01:08:05.072Z,31.76
2023-04-25T01:09:05.123Z,31.74
2023-04-25T01:10:05.064Z,31.74
2023-04-25T01:11:05.038Z,31.74
2023-04-25T01:12:05.011Z,31.75
2023-04-25T01:13:05.036Z,31.75
2023-04-25T01:14:05.010Z,31.77
2023-04-25T01:15:05.063Z,31.79
2023-04-25T01:16:05.021Z,31.77
2023-04-25T01:17:05.024Z,31.76
2023-04-25T01:18:05.046Z,31.76
2023-04-25T01:19:04.985Z,31.76
2023-04-25T01:20:04.982Z,31.75
2023-04-25T01:21:04.986Z,31.74
2023-04-25T01:22:04.971Z,31.77
2023-04-25T01:23:04.983Z,31.78
2023-04-25T01:24:04.974Z,31.77
2023-04-25T01:25:04.943Z,31.76
2023-04-25T01:26:04.960Z,31.78
2023-04-25T01:27:04.950Z,31.77
2023-04-25T01:28:04.943Z,31.77
2023-04-25T01:29:04.943Z,31.78
2023-04-25T01:30:04.941Z,31.81
2023-04-25T01:31:04.924Z,31.78
2023-04-25T01:32:04.950Z,31.79
2023-04-25T01:33:04.924Z,31.78
2023-04-25T01:34:04.891Z,31.78
2023-04-25T01:35:04.874Z,31.77
2023-04-25T01:36:04.863Z,31.80
2023-04-25T01:37:04.864Z,31.80
2023-04-25T01:38:04.863Z,31.78
2023-04-25T01:39:04.842Z,31.80
2023-04-25T01:40:04.857Z,31.80
2023-04-25T01:41:04.859Z,31.82
2023-04-25T01:42:04.832Z,31.80
2023-04-25T01:43:04.819Z,31.80
2023-04-25T01:44:04.811Z,31.80
2023-04-25T01:45:04.849Z,31.82
2023-04-25T01:46:04.868Z,31.81
2023-04-25T01:47:04.792Z,31.81
2023-04-25T01:48:04.807Z,31.82
2023-04-25T01:49:04.780Z,31.83
2023-04-25T01:50:04.756Z,31.84
2023-04-25T01:51:04.762Z,31.83
2023-04-25T01:52:04.794Z,31.84
2023-04-25T01:53:04.783Z,31.85
2023-04-25T01:54:04.775Z,31.85
2023-04-25T01:55:04.741Z,31.85
2023-04-25T01:56:04.712Z,31.86
2023-04-25T01:57:04.731Z,31.86
2023-04-25T01:58:04.738Z,31.86
2023-04-25T01:59:04.713Z,31.87
2023-04-25T02:00:04.747Z,31.85
2023-04-25T02:01:04.748Z,31.85
2023-04-25T02:02:04.712Z,31.86
2023-04-25T02:03:04.884Z,31.86
2023-04-25T02:04:04.950Z,31.88
2023-04-25T02:05:04.726Z,31.87
2023-04-25T02:06:04.659Z,31.88
2023-04-25T02:07:04.664Z,31.86
2023-04-25T02:08:04.665Z,31.86
2023-04-25T02:09:04.629Z,31.88
2023-04-25T02:10:04.651Z,31.89
2023-04-25T02:11:04.636Z,31.88
2023-04-25T02:12:04.637Z,31.88
2023-04-25T02:13:04.697Z,31.88
2023-04-25T02:14:04.665Z,31.87
2023-04-25T02:15:04.714Z,31.91
2023-04-25T02:16:04.686Z,31.91
2023-04-25T02:17:04.640Z,31.89
2023-04-25T02:18:04.677Z,31.89
2023-04-25T02:19:04.618Z,31.90
2023-04-25T02:20:04.622Z,31.89
2023-04-25T02:21:04.597Z,31.93
2023-04-25T02:22:04.552Z,31.92
2023-04-25T02:23:04.646Z,31.92
2023-04-25T02:24:04.543Z,31.92
2023-04-25T02:25:04.544Z,31.91
2023-04-25T02:26:04.520Z,31.89
2023-04-25T02:27:04.529Z,31.92
2023-04-25T02:28:04.503Z,31.92
2023-04-25T02:29:04.500Z,31.93
2023-04-25T02:30:04.512Z,31.91
2023-04-25T02:31:04.533Z,31.92
2023-04-25T02:32:04.472Z,31.94
2023-04-25T02:33:04.609Z,31.91
2023-04-25T02:34:04.547Z,31.91
2023-04-25T02:35:04.464Z,31.93
2023-04-25T02:36:04.515Z,31.94
2023-04-25T02:37:04.452Z,31.94
2023-04-25T02:38:04.479Z,31.95
2023-04-25T02:39:04.471Z,31.97
2023-04-25T02:40:04.437Z,31.97
2023-04-25T02:41:04.455Z,31.98
2023-04-25T02:42:04.462Z,31.98
2023-04-25T02:43:04.445Z,31.95
2023-04-25T02:44:04.411Z,31.99
2023-04-25T02:45:04.440Z,32.00
2023-04-25T02:46:04.415Z,31.99
2023-04-25T02:47:04.443Z,32.02
2023-04-25T02:48:04.444Z,31.99
2023-04-25T02:49:04.387Z,32.01
2023-04-25T02:50:04.391Z,32.02
2023-04-25T02:51:04.352Z,32.00
2023-04-25T02:52:04.355Z,32.03
2023-04-25T02:53:04.343Z,32.03
2023-04-25T02:54:04.383Z,32.03
2023-04-25T02:55:04.346Z,32.05
2023-04-25T02:56:04.333Z,32.05
2023-04-25T02:57:04.324Z,32.05
2023-04-25T02:58:04.293Z,32.02
2023-04-25T02:59:04.333Z,32.06
2023-04-25T03:00:04.312Z,32.05
2023-04-25T03:01:04.312Z,32.04
2023-04-25T03:02:04.279Z,32.05
2023-04-25T03:03:04.392Z,32.06
2023-04-25T03:04:04.329Z,32.08
2023-04-25T03:05:04.282Z,32.08
2023-04-25T03:06:04.258Z,32.07
2023-04-25T03:07:04.245Z,32.07
2023-04-25T03:08:04.247Z,32.12
2023-04-25T03:09:04.218Z,32.11
2023-04-25T03:10:04.219Z,32.11
2023-04-25T03:11:04.227Z,32.15
2023-04-25T03:12:04.226Z,32.14
2023-04-25T03:13:04.226Z,32.13
2023-04-25T03:14:04.198Z,32.17
2023-04-25T03:15:04.206Z,32.17
2023-04-25T03:16:04.233Z,32.15
2023-04-25T03:17:04.203Z,32.17
2023-04-25T03:18:04.226Z,32.19
2023-04-25T03:19:04.191Z,32.17
2023-04-25T03:20:04.168Z,32.20
2023-04-25T03:21:04.199Z,32.19
2023-04-25T03:22:04.309Z,32.19
2023-04-25T03:23:04.244Z,32.19
2023-04-25T03:24:04.245Z,32.21
2023-04-25T03:25:04.295Z,32.20
2023-04-25T03:26:04.296Z,32.18
2023-04-25T03:27:04.338Z,32.19
2023-04-25T03:28:04.344Z,32.20
2023-04-25T03:29:04.373Z,32.17
2023-04-25T03:30:04.392Z,32.19
2023-04-25T03:31:04.383Z,32.20
2023-04-25T03:32:04.464Z,32.19
2023-04-25T03:33:04.513Z,32.20
2023-04-25T03:34:04.465Z,32.20
2023-04-25T03:35:04.476Z,32.19
2023-04-25T03:36:04.488Z,32.21
2023-04-25T03:37:04.527Z,32.23
2023-04-25T03:38:04.524Z,32.23
2023-04-25T03:39:04.540Z,32.23
2023-04-25T03:40:04.650Z,32.23
2023-04-25T03:41:04.588Z,32.21
2023-04-25T03:42:04.623Z,32.23
2023-04-25T03:43:04.650Z,32.21
2023-04-25T03:44:04.645Z,32.21
2023-04-25T03:45:04.702Z,32.23
2023-04-25T03:46:04.716Z,32.20
2023-04-25T03:47:04.756Z,32.23
2023-04-25T03:48:04.823Z,32.21
2023-04-25T03:49:04.800Z,32.22
2023-04-25T03:50:04.775Z,32.22
2023-04-25T03:51:04.792Z,32.22
2023-04-25T03:52:04.838Z,32.24
2023-04-25T03:53:04.835Z,32.22
2023-04-25T03:54:04.878Z,32.23
2023-04-25T03:55:04.906Z,32.25
2023-04-25T03:56:04.896Z,32.25
2023-04-25T03:57:04.943Z,32.24
2023-04-25T03:58:04.935Z,32.25
2023-04-25T03:59:04.990Z,32.23
2023-04-25T04:00:05.021Z,32.24
2023-04-25T04:01:05.015Z,32.22
2023-04-25T04:02:05.107Z,32.25
2023-04-25T04:03:05.178Z,32.21
2023-04-25T04:04:05.364Z,32.20
2023-04-25T04:05:05.268Z,32.22
2023-04-25T04:06:05.109Z,32.19
2023-04-25T04:07:05.156Z,32.21
2023-04-25T04:08:05.162Z,32.20
2023-04-25T04:09:05.193Z,32.21
2023-04-25T04:10:05.202Z,32.21
2023-04-25T04:11:05.237Z,32.19
2023-04-25T04:12:05.272Z,32.20
2023-04-25T04:13:05.298Z,32.19
2023-04-25T04:14:05.309Z,32.20
2023-04-25T04:15:05.325Z,32.19
2023-04-25T04:16:05.446Z,32.21
2023-04-25T04:17:05.380Z,32.22
2023-04-25T04:18:05.469Z,32.22
2023-04-25T04:19:05.434Z,32.21
2023-04-25T04:20:05.467Z,32.22
2023-04-25T04:21:05.457Z,32.22
2023-04-25T04:22:05.509Z,32.21
2023-04-25T04:23:05.529Z,32.23
2023-04-25T04:24:05.544Z,32.24
2023-04-25T04:25:05.593Z,32.23
2023-04-25T04:26:05.612Z,32.23
2023-04-25T04:27:05.631Z,32.24
2023-04-25T04:28:05.710Z,32.24
2023-04-25T04:29:05.727Z,32.22
2023-04-25T04:30:05.735Z,32.23
2023-04-25T04:31:05.785Z,32.22
2023-04-25T04:32:05.759Z,32.21
2023-04-25T04:33:05.873Z,32.22
2023-04-25T04:34:05.857Z,32.19
2023-04-25T04:35:05.897Z,32.23
2023-04-25T04:36:05.986Z,32.20
2023-04-25T04:37:05.923Z,32.23
2023-04-25T04:38:05.959Z,32.21
2023-04-25T04:39:06.012Z,32.22
2023-04-25T04:40:06.042Z,32.20
2023-04-25T04:41:06.058Z,32.20
2023-04-25T04:42:06.183Z,32.18
2023-04-25T04:43:06.108Z,32.22
2023-04-25T04:44:07.116Z,32.21
2023-04-25T04:45:06.183Z,32.22
2023-04-25T04:46:06.199Z,32.21
2023-04-25T04:47:06.232Z,32.20
2023-04-25T04:48:06.263Z,32.20
2023-04-25T04:49:06.266Z,32.22
2023-04-25T04:50:06.286Z,32.23
2023-04-25T04:51:06.326Z,32.21
2023-04-25T04:52:06.337Z,32.23
2023-04-25T04:53:06.379Z,32.26
2023-04-25T04:54:06.419Z,32.26
2023-04-25T04:55:06.435Z,32.27
2023-04-25T04:56:06.479Z,32.28
2023-04-25T04:57:06.514Z,32.28
2023-04-25T04:58:06.521Z,32.28
2023-04-25T04:59:06.513Z,32.28
2023-04-25T05:00:06.593Z,32.30
2023-04-25T05:01:06.620Z,32.29
2023-04-25T05:02:06.612Z,32.30
2023-04-25T05:03:06.840Z,32.28
2023-04-25T05:04:06.886Z,32.30
2023-04-25T05:05:06.772Z,32.29
2023-04-25T05:06:06.735Z,32.30
2023-04-25T05:07:06.797Z,32.27
2023-04-25T05:08:06.780Z,32.29
2023-04-25T05:09:06.869Z,32.30
2023-04-25T05:10:06.853Z,32.29
2023-04-25T05:11:06.902Z,32.30
2023-04-25T05:12:06.959Z,32.30
2023-04-25T05:13:07.022Z,32.32
2023-04-25T05:14:06.989Z,32.28
2023-04-25T05:15:07.046Z,32.28
2023-04-25T05:16:07.114Z,32.30
2023-04-25T05:17:07.096Z,32.31
2023-04-25T05:18:07.217Z,32.31
2023-04-25T05:19:07.204Z,32.31
2023-04-25T05:20:07.218Z,32.30
2023-04-25T05:21:07.232Z,32.29
2023-04-25T05:22:07.287Z,32.31
2023-04-25T05:23:07.297Z,32.31
2023-04-25T05:24:07.326Z,32.32
2023-04-25T05:25:07.379Z,32.32
2023-04-25T05:26:07.405Z,32.28
2023-04-25T05:27:07.446Z,32.29
2023-04-25T05:28:07.486Z,32.29
2023-04-25T05:29:07.524Z,32.29
2023-04-25T05:30:07.530Z,32.30
2023-04-25T05:31:07.551Z,32.30
2023-04-25T05:32:07.618Z,32.32
2023-04-25T05:33:07.659Z,32.32
2023-04-25T05:34:07.656Z,32.32
2023-04-25T05:35:07.809Z,32.31
2023-04-25T05:36:07.753Z,32.29
2023-04-25T05:37:07.769Z,32.28
2023-04-25T05:38:07.812Z,32.30
2023-04-25T05:39:07.804Z,32.28
2023-04-25T05:40:08.273Z,32.28
2023-04-25T05:41:07.890Z,32.46
2023-04-25T05:42:07.932Z,32.53
2023-04-25T05:43:07.951Z,32.69
2023-04-25T05:44:07.946Z,32.71
2023-04-25T05:45:08.276Z,32.86
2023-04-25T05:46:08.021Z,32.94
2023-04-25T05:47:08.022Z,32.96
2023-04-25T05:48:08.108Z,33.26
2023-04-25T05:49:08.073Z,33.80
2023-04-25T05:50:08.056Z,33.93
2023-04-25T05:51:08.066Z,33.84
2023-04-25T05:52:08.070Z,34.00
2023-04-25T05:53:08.079Z,33.96
2023-04-25T05:54:08.093Z,34.00
2023-04-25T05:55:08.092Z,34.08
2023-04-25T05:56:08.071Z,34.36
2023-04-25T05:57:08.105Z,34.30
2023-04-25T05:58:08.106Z,34.35
2023-04-25T05:59:08.086Z,34.40
2023-04-25T06:00:08.070Z,34.60
2023-04-25T06:01:08.076Z,34.62
2023-04-25T06:02:08.091Z,34.93
2023-04-25T06:03:08.412Z,35.13
2023-04-25T06:04:08.310Z,35.28
2023-04-25T06:05:08.303Z,35.42
2023-04-25T06:06:08.314Z,35.75
2023-04-25T06:07:08.045Z,35.77
2023-04-25T06:08:08.060Z,35.86
2023-04-25T06:09:08.762Z,35.85
2023-04-25T06:10:08.061Z,35.87
2023-04-25T06:11:08.077Z,35.90
2023-04-25T06:12:08.071Z,36.09
2023-04-25T06:13:08.114Z,36.13
2023-04-25T06:14:08.155Z,36.23
2023-04-25T06:15:20.231Z,36.41
2023-04-25T06:16:09.235Z,36.37
2023-04-25T06:17:08.178Z,36.34
2023-04-25T06:18:08.241Z,36.38
2023-04-25T06:19:08.148Z,36.52
2023-04-25T06:20:08.163Z,36.65
2023-04-25T06:21:08.143Z,36.66
2023-04-25T06:22:08.110Z,36.77
2023-04-25T06:23:08.143Z,37.16
2023-04-25T06:24:08.081Z,37.08
2023-04-25T06:25:08.122Z,36.98
2023-04-25T06:26:08.162Z,35.56
2023-04-25T06:27:08.157Z,34.83
2023-04-25T06:28:08.183Z,34.84
2023-04-25T06:29:08.169Z,35.23
2023-04-25T06:30:08.180Z,35.18
2023-04-25T06:31:08.209Z,35.61
2023-04-25T06:32:08.197Z,36.08
2023-04-25T06:33:08.279Z,36.17
2023-04-25T06:34:08.261Z,36.40
2023-04-25T06:35:08.303Z,36.48
2023-04-25T06:36:08.796Z,36.63
2023-04-25T06:37:08.434Z,36.52
2023-04-25T06:38:08.477Z,36.48
2023-04-25T06:39:08.565Z,36.48
2023-04-25T06:40:08.629Z,36.50
2023-04-25T06:41:08.672Z,36.55
2023-04-25T06:42:08.756Z,36.55
2023-04-25T06:43:08.758Z,36.59
2023-04-25T06:44:08.834Z,36.58
2023-04-25T06:45:08.900Z,36.64
2023-04-25T06:46:09.309Z,36.87
2023-04-25T06:47:09.075Z,36.69
2023-04-25T06:48:09.105Z,36.81
2023-04-25T06:49:09.107Z,36.84
2023-04-25T06:50:09.145Z,36.91
2023-04-25T06:51:09.293Z,36.90
2023-04-25T06:52:09.252Z,36.87
2023-04-25T06:53:09.300Z,36.93
2023-04-25T06:54:09.334Z,36.25
2023-04-25T06:55:09.445Z,35.45
2023-04-25T06:56:09.485Z,33.59
2023-04-25T06:57:09.505Z,33.60
2023-04-25T06:58:09.550Z,34.43
2023-04-25T06:59:09.569Z,35.13
2023-04-25T07:00:09.624Z,35.67
2023-04-25T07:01:09.738Z,35.89
2023-04-25T07:02:09.816Z,36.07
2023-04-25T07:03:09.929Z,36.15
2023-04-25T07:04:10.118Z,36.20
2023-04-25T07:05:09.886Z,36.18
2023-04-25T07:06:09.976Z,36.23
2023-04-25T07:07:10.031Z,36.29
2023-04-25T07:08:10.066Z,36.38
2023-04-25T07:09:10.136Z,36.43
2023-04-25T07:10:10.201Z,36.40
2023-04-25T07:11:10.252Z,36.40
2023-04-25T07:12:10.287Z,36.39
2023-04-25T07:13:10.351Z,36.43
2023-04-25T07:14:10.371Z,36.39
2023-04-25T07:15:10.436Z,36.46
2023-04-25T07:16:10.550Z,36.54
2023-04-25T07:17:10.508Z,36.58
2023-04-25T07:18:10.622Z,36.62
2023-04-25T07:19:10.618Z,36.65
2023-04-25T07:20:10.637Z,36.69
2023-04-25T07:21:10.766Z,36.72
2023-04-25T07:22:10.715Z,36.77
2023-04-25T07:23:10.762Z,36.85
2023-04-25T07:24:10.791Z,36.32
2023-04-25T07:25:10.830Z,35.63
2023-04-25T07:26:10.858Z,34.97
2023-04-25T07:27:10.909Z,34.28
2023-04-25T07:28:10.959Z,35.10
2023-04-25T07:29:11.057Z,35.97
2023-04-25T07:30:11.078Z,36.11
2023-04-25T07:31:11.111Z,36.29
2023-04-25T07:32:11.210Z,36.35
2023-04-25T07:33:11.280Z,36.33
2023-04-25T07:34:11.257Z,36.32
2023-04-25T07:35:11.278Z,36.32
2023-04-25T07:36:11.311Z,36.35
2023-04-25T07:37:11.353Z,36.39
2023-04-25T07:38:11.418Z,36.40
2023-04-25T07:39:11.412Z,36.45
2023-04-25T07:40:11.438Z,36.49
2023-04-25T07:41:11.819Z,36.52
2023-04-25T07:42:11.536Z,36.57
2023-04-25T07:43:11.537Z,36.54
2023-04-25T07:44:11.546Z,36.57
2023-04-25T07:45:11.608Z,36.77
2023-04-25T07:46:11.883Z,36.91
2023-04-25T07:47:11.630Z,37.19
2023-04-25T07:48:11.625Z,37.15
2023-04-25T07:49:11.641Z,37.12
2023-04-25T07:50:11.642Z,37.25
2023-04-25T07:51:11.833Z,37.39
2023-04-25T07:52:11.669Z,37.58
2023-04-25T07:53:11.638Z,37.70
2023-04-25T07:54:11.677Z,37.52
2023-04-25T07:55:11.650Z,37.59
2023-04-25T07:56:11.671Z,37.24
2023-04-25T07:57:11.660Z,36.41
2023-04-25T07:58:11.719Z,36.24
2023-04-25T07:59:11.746Z,36.30
2023-04-25T08:00:11.747Z,37.01
2023-04-25T08:01:11.774Z,37.19
2023-04-25T08:02:11.818Z,36.85
2023-04-25T08:03:11.985Z,36.48
2023-04-25T08:04:11.973Z,36.88
2023-04-25T08:05:12.013Z,36.52
2023-04-25T08:06:12.644Z,35.84
2023-04-25T08:07:11.938Z,36.42
2023-04-25T08:08:11.934Z,36.59
2023-04-25T08:09:11.982Z,36.55
2023-04-25T08:10:12.032Z,36.26
2023-04-25T08:11:12.094Z,36.52
2023-04-25T08:12:12.091Z,35.64
2023-04-25T08:13:12.103Z,34.43
2023-04-25T08:14:12.154Z,32.04
2023-04-25T08:15:12.221Z,34.26
2023-04-25T08:16:12.295Z,35.15
2023-04-25T08:17:12.307Z,35.59
2023-04-25T08:18:12.350Z,35.75
2023-04-25T08:19:12.376Z,35.75
2023-04-25T08:20:12.406Z,35.74
2023-04-25T08:21:12.509Z,35.66
2023-04-25T08:22:12.473Z,35.71
2023-04-25T08:23:12.497Z,35.76
2023-04-25T08:24:12.516Z,35.82
2023-04-25T08:25:12.507Z,35.85
2023-04-25T08:26:12.507Z,35.86
2023-04-25T08:27:12.491Z,35.98
2023-04-25T08:28:12.497Z,36.06
2023-04-25T08:29:12.522Z,34.15
2023-04-25T08:30:12.545Z,32.89
2023-04-25T08:31:12.568Z,33.08
2023-04-25T08:32:12.561Z,31.59
2023-04-25T08:33:12.630Z,31.99
2023-04-25T08:34:12.648Z,31.26
2023-04-25T08:35:12.698Z,31.09
2023-04-25T08:36:13.174Z,30.88
2023-04-25T08:37:12.822Z,30.97
2023-04-25T08:38:12.860Z,31.24
2023-04-25T08:39:13.012Z,31.06
2023-04-25T08:40:12.963Z,30.94
2023-04-25T08:41:13.364Z,30.92
2023-04-25T08:42:12.992Z,30.98
2023-04-25T08:43:12.968Z,30.81
2023-04-25T08:44:12.992Z,30.51
2023-04-25T08:45:12.993Z,30.45
2023-04-25T08:46:13.395Z,30.57
2023-04-25T08:47:13.038Z,31.01
2023-04-25T08:48:13.071Z,31.11
2023-04-25T08:49:13.020Z,31.34
2023-04-25T08:50:13.000Z,32.27
2023-04-25T08:51:13.349Z,32.74
2023-04-25T08:52:13.001Z,32.47
2023-04-25T08:53:12.991Z,32.63
2023-04-25T08:54:23.322Z,32.84
2023-04-25T08:55:14.129Z,32.93
2023-04-25T08:56:13.021Z,33.02
2023-04-25T08:57:13.053Z,33.09
2023-04-25T08:58:13.005Z,33.11
2023-04-25T08:59:12.972Z,33.15
2023-04-25T09:00:12.972Z,33.23
2023-04-25T09:01:13.103Z,33.19
2023-04-25T09:02:13.054Z,32.07
2023-04-25T09:03:13.180Z,32.93
2023-04-25T09:04:13.055Z,32.77
2023-04-25T09:05:12.982Z,32.62
2023-04-25T09:06:13.044Z,32.61
2023-04-25T09:07:13.041Z,32.98
2023-04-25T09:08:13.076Z,33.03
2023-04-25T09:09:13.127Z,33.19
2023-04-25T09:10:13.163Z,33.22
2023-04-25T09:11:13.195Z,33.21
2023-04-25T09:12:13.240Z,33.23
2023-04-25T09:13:13.269Z,33.23
2023-04-25T09:14:13.316Z,33.28
2023-04-25T09:15:19.668Z,33.22
2023-04-25T09:16:14.535Z,33.26
2023-04-25T09:17:13.318Z,33.27
2023-04-25T09:18:13.350Z,33.16
2023-04-25T09:19:13.295Z,33.17
2023-04-25T09:20:13.281Z,32.80
2023-04-25T09:21:14.914Z,33.10
2023-04-25T09:22:13.277Z,33.16
2023-04-25T09:23:13.281Z,33.15
2023-04-25T09:24:13.256Z,33.13
2023-04-25T09:25:13.290Z,33.06
2023-04-25T09:26:13.269Z,31.69
2023-04-25T09:27:13.239Z,32.62
2023-04-25T09:28:13.232Z,32.93
2023-04-25T09:29:13.229Z,32.18
2023-04-25T09:30:13.255Z,32.70
2023-04-25T09:31:13.206Z,32.61
2023-04-25T09:32:13.407Z,30.89
2023-04-25T09:33:13.272Z,32.36
2023-04-25T09:34:13.275Z,32.48
2023-04-25T09:35:13.297Z,32.65
2023-04-25T09:36:13.360Z,32.16
2023-04-25T09:37:13.393Z,32.11
2023-04-25T09:38:13.445Z,31.80
2023-04-25T09:39:13.491Z,31.92
2023-04-25T09:40:13.488Z,32.03
2023-04-25T09:41:13.574Z,32.03
2023-04-25T09:42:13.881Z,31.98
2023-04-25T09:43:13.660Z,32.23
2023-04-25T09:44:13.736Z,32.38
2023-04-25T09:45:13.765Z,32.47
2023-04-25T09:46:13.807Z,32.68
2023-04-25T09:47:13.808Z,32.21
2023-04-25T09:48:13.883Z,32.13
2023-04-25T09:49:13.916Z,31.78
2023-04-25T09:50:13.944Z,32.19
2023-04-25T09:51:13.992Z,32.89
2023-04-25T09:52:14.101Z,33.13
2023-04-25T09:53:14.151Z,32.83
2023-04-25T09:54:14.123Z,32.38
2023-04-25T09:55:14.174Z,31.26
2023-04-25T09:56:14.242Z,30.25
2023-04-25T09:57:14.301Z,30.43
2023-04-25T09:58:14.369Z,30.82
2023-04-25T09:59:14.412Z,30.46
2023-04-25T10:00:14.420Z,30.41
2023-04-25T10:01:14.416Z,30.48
2023-04-25T10:02:14.451Z,30.38
2023-04-25T10:03:14.486Z,30.06
2023-04-25T10:04:14.480Z,29.71
2023-04-25T10:05:14.464Z,30.06
2023-04-25T10:06:14.396Z,30.04
2023-04-25T10:07:14.894Z,30.16
2023-04-25T10:08:14.402Z,30.32
2023-04-25T10:09:14.434Z,30.28
2023-04-25T10:10:14.441Z,30.15
2023-04-25T10:11:14.411Z,30.27
2023-04-25T10:12:14.424Z,30.08
2023-04-25T10:13:14.428Z,29.71
2023-04-25T10:14:14.400Z,29.94
2023-04-25T10:15:14.406Z,29.75
2023-04-25T10:16:14.448Z,29.72
2023-04-25T10:17:14.389Z,30.01
2023-04-25T10:18:14.407Z,29.99
2023-04-25T10:19:14.386Z,29.93
2023-04-25T10:20:14.439Z,30.11
2023-04-25T10:21:14.444Z,29.85
2023-04-25T10:22:14.431Z,30.41
2023-04-25T10:23:14.391Z,30.05
2023-04-25T10:24:14.491Z,29.90
2023-04-25T10:25:14.410Z,29.98
2023-04-25T10:26:14.424Z,29.85
2023-04-25T10:27:14.392Z,30.08
2023-04-25T10:28:14.418Z,29.34
2023-04-25T10:29:14.410Z,29.40
2023-04-25T10:30:14.425Z,29.45
2023-04-25T10:31:14.519Z,29.61
2023-04-25T10:32:14.513Z,30.12
2023-04-25T10:33:14.426Z,30.32
2023-04-25T10:34:14.438Z,29.88
2023-04-25T10:35:14.428Z,30.48
2023-04-25T10:36:14.415Z,30.77
2023-04-25T10:37:14.866Z,30.88
2023-04-25T10:38:14.471Z,31.04
2023-04-25T10:39:14.500Z,31.48
2023-04-25T10:40:14.640Z,31.60
2023-04-25T10:41:14.593Z,32.07
2023-04-25T10:42:14.868Z,31.80
2023-04-25T10:43:15.118Z,32.20
2023-04-25T10:44:14.717Z,32.40
2023-04-25T10:45:14.835Z,32.45
2023-04-25T10:46:14.880Z,32.53
2023-04-25T10:47:14.993Z,32.71
2023-04-25T10:48:14.946Z,32.84
2023-04-25T10:49:16.197Z,33.09
2023-04-25T10:50:15.061Z,33.27
2023-04-25T10:51:15.010Z,33.37
2023-04-25T10:52:15.049Z,33.36
2023-04-25T10:53:15.039Z,33.65
2023-04-25T10:54:15.065Z,33.76
2023-04-25T10:55:15.068Z,33.83
2023-04-25T10:56:15.073Z,33.89
2023-04-25T10:57:15.081Z,33.95
2023-04-25T10:58:15.086Z,34.28
2023-04-25T10:59:15.048Z,34.32
2023-04-25T11:00:15.101Z,34.43
2023-04-25T11:01:15.105Z,34.60
2023-04-25T11:02:15.212Z,34.68
2023-04-25T11:03:15.249Z,34.80
2023-04-25T11:04:15.474Z,34.85
2023-04-25T11:05:15.277Z,35.03
2023-04-25T11:06:15.321Z,35.31
2023-04-25T11:07:15.394Z,35.45
2023-04-25T11:08:16.373Z,35.53
2023-04-25T11:09:15.493Z,35.71
2023-04-25T11:10:15.594Z,35.69
2023-04-25T11:11:15.625Z,35.85
2023-04-25T11:12:15.664Z,36.00
2023-04-25T11:13:15.699Z,36.07
2023-04-25T11:14:15.740Z,36.26
2023-04-25T11:15:15.782Z,36.53
2023-04-25T11:16:23.685Z,36.74
2023-04-25T11:17:16.943Z,36.88
2023-04-25T11:18:15.988Z,36.88
2023-04-25T11:19:15.804Z,36.99
2023-04-25T11:20:15.802Z,37.32
2023-04-25T11:21:15.773Z,37.51
2023-04-25T11:22:15.811Z,37.54
2023-04-25T11:23:15.802Z,37.50
2023-04-25T11:24:15.781Z,37.51
2023-04-25T11:25:15.793Z,37.60
2023-04-25T11:26:15.770Z,37.55
2023-04-25T11:27:15.896Z,37.75
2023-04-25T11:28:15.762Z,37.83
2023-04-25T11:29:15.758Z,37.86
2023-04-25T11:30:15.771Z,37.96
2023-04-25T11:31:15.761Z,38.13
2023-04-25T11:32:15.973Z,38.14
2023-04-25T11:33:15.855Z,38.09
2023-04-25T11:34:15.809Z,38.04
2023-04-25T11:35:15.861Z,38.00
2023-04-25T11:36:15.878Z,37.98
2023-04-25T11:37:16.391Z,38.01
2023-04-25T11:38:15.958Z,38.05
2023-04-25T11:39:15.981Z,38.02
2023-04-25T11:40:16.013Z,38.01
2023-04-25T11:41:16.041Z,37.99
2023-04-25T11:42:16.095Z,38.00
2023-04-25T11:43:16.380Z,37.95
2023-04-25T11:44:16.343Z,37.98
2023-04-25T11:45:16.519Z,36.11
2023-04-25T11:46:16.524Z,34.81
2023-04-25T11:47:16.457Z,32.68
2023-04-25T11:48:16.587Z,33.59
2023-04-25T11:49:17.415Z,33.01
2023-04-25T11:50:16.474Z,32.89
2023-04-25T11:51:16.508Z,33.03
2023-04-25T11:52:16.556Z,32.70
2023-04-25T11:53:16.596Z,32.93
2023-04-25T11:54:16.725Z,32.80
2023-04-25T11:55:16.708Z,32.89
2023-04-25T11:56:16.776Z,33.03
2023-04-25T11:57:16.789Z,33.44
2023-04-25T11:58:16.809Z,33.56
2023-04-25T11:59:16.869Z,33.65
2023-04-25T12:00:18.609Z,33.76
2023-04-25T12:01:16.902Z,33.70
2023-04-25T12:02:16.980Z,33.86
2023-04-25T12:03:17.058Z,33.84
2023-04-25T12:04:17.204Z,33.86
2023-04-25T12:05:31.164Z,33.81
2023-04-25T12:06:18.077Z,33.87
2023-04-25T12:07:17.063Z,33.84
2023-04-25T12:08:17.040Z,33.75
2023-04-25T12:09:16.997Z,33.58
2023-04-25T12:10:17.025Z,33.41
2023-04-25T12:11:17.029Z,33.51
2023-04-25T12:12:17.048Z,33.44
2023-04-25T12:13:17.035Z,33.33
2023-04-25T12:14:17.061Z,33.32
2023-04-25T12:15:17.063Z,33.24
2023-04-25T12:16:17.128Z,33.32
2023-04-25T12:17:17.103Z,33.55
2023-04-25T12:18:17.131Z,33.39
2023-04-25T12:19:17.109Z,33.54
2023-04-25T12:20:17.117Z,33.45
2023-04-25T12:21:17.162Z,33.25
2023-04-25T12:22:17.172Z,33.21
2023-04-25T12:23:17.195Z,33.21
2023-04-25T12:24:17.231Z,33.18
2023-04-25T12:25:17.203Z,33.23
2023-04-25T12:26:17.170Z,33.16
2023-04-25T12:27:17.206Z,32.90
2023-04-25T12:28:17.282Z,33.11
2023-04-25T12:29:17.204Z,32.86
2023-04-25T12:30:17.218Z,32.83
2023-04-25T12:31:17.344Z,32.70
2023-04-25T12:32:17.244Z,32.51
2023-04-25T12:33:17.256Z,32.17
2023-04-25T12:34:17.248Z,32.07
2023-04-25T12:35:17.246Z,31.99
2023-04-25T12:36:17.255Z,31.60
2023-04-25T12:37:17.268Z,31.55
2023-04-25T12:38:17.259Z,31.75
2023-04-25T12:39:17.288Z,31.96
2023-04-25T12:40:17.254Z,32.12
2023-04-25T12:41:17.248Z,32.33
2023-04-25T12:42:17.243Z,32.49
2023-04-25T12:43:17.282Z,32.52
2023-04-25T12:44:17.230Z,32.64
2023-04-25T12:45:17.238Z,32.45
2023-04-25T12:46:17.324Z,32.49
2023-04-25T12:47:17.264Z,32.45
2023-04-25T12:48:17.296Z,32.35
2023-04-25T12:49:19.209Z,32.37
2023-04-25T12:50:17.355Z,32.41
2023-04-25T12:51:17.365Z,32.44
2023-04-25T12:52:17.376Z,32.45